sensor_id;sensor_type;location;lat;lon;timestamp;P1;durP1;ratioP1;P2;durP2;ratioP2
73593;SDS011;64760;53.404;23.498;2023-02-01T00:00:04;9.13;;;4.03;;
73593;SDS011;64760;53.404;23.498;2023-02-01T00:06:18;13.65;;;4.70;;
73593;SDS011;64760;53.404;23.498;2023-02-01T00:08:44;6.95;;;2.70;;
73593;SDS011;64760;53.404;23.498;2023-02-01T00:14:14;10.80;;;5.32;;
73593;SDS011;64760;53.404;23.498;2023-02-01T00:16:40;8.48;;;3.83;;
73593;SDS011;64760;53.404;23.498;2023-02-01T00:19:09;22.10;;;8.05;;
73593;SDS011;64760;53.404;23.498;2023-02-01T00:21:37;12.25;;;5.18;;
73593;SDS011;64760;53.404;23.498;2023-02-01T00:24:03;8.55;;;4.07;;
73593;SDS011;64760;53.404;23.498;2023-02-01T00:26:31;17.88;;;5.38;;
73593;SDS011;64760;53.404;23.498;2023-02-01T00:28:59;6.22;;;2.75;;
73593;SDS011;64760;53.404;23.498;2023-02-01T00:31:27;11.60;;;4.35;;
73593;SDS011;64760;53.404;23.498;2023-02-01T00:33:54;8.70;;;4.13;;
73593;SDS011;64760;53.404;23.498;2023-02-01T00:36:22;7.78;;;4.20;;
73593;SDS011;64760;53.404;23.498;2023-02-01T00:38:48;11.00;;;4.68;;
73593;SDS011;64760;53.404;23.498;2023-02-01T00:41:16;6.88;;;3.33;;
73593;SDS011;64760;53.404;23.498;2023-02-01T00:43:55;10.32;;;3.88;;
73593;SDS011;64760;53.404;23.498;2023-02-01T00:46:21;9.57;;;4.78;;
73593;SDS011;64760;53.404;23.498;2023-02-01T00:48:49;9.30;;;4.25;;
73593;SDS011;64760;53.404;23.498;2023-02-01T00:51:17;10.43;;;3.63;;
73593;SDS011;64760;53.404;23.498;2023-02-01T00:53:46;8.80;;;3.55;;
73593;SDS011;64760;53.404;23.498;2023-02-01T00:56:14;10.80;;;4.57;;
73593;SDS011;64760;53.404;23.498;2023-02-01T00:58:41;8.00;;;2.88;;
73593;SDS011;64760;53.404;23.498;2023-02-01T01:01:09;7.40;;;3.33;;
73593;SDS011;64760;53.404;23.498;2023-02-01T01:03:39;7.43;;;3.28;;
73593;SDS011;64760;53.404;23.498;2023-02-01T01:06:09;5.72;;;2.95;;
73593;SDS011;64760;53.404;23.498;2023-02-01T01:08:37;6.00;;;2.60;;
73593;SDS011;64760;53.404;23.498;2023-02-01T01:11:05;7.85;;;3.65;;
73593;SDS011;64760;53.404;23.498;2023-02-01T01:13:37;10.20;;;4.22;;
73593;SDS011;64760;53.404;23.498;2023-02-01T01:16:04;7.88;;;2.78;;
73593;SDS011;64760;53.404;23.498;2023-02-01T01:18:32;2.40;;;1.63;;
73593;SDS011;64760;53.404;23.498;2023-02-01T01:20:59;3.67;;;1.67;;
73593;SDS011;64760;53.404;23.498;2023-02-01T01:23:27;4.82;;;2.75;;
73593;SDS011;64760;53.404;23.498;2023-02-01T01:25:53;8.38;;;4.05;;
73593;SDS011;64760;53.404;23.498;2023-02-01T01:28:20;3.83;;;1.60;;
73593;SDS011;64760;53.404;23.498;2023-02-01T01:30:46;6.65;;;3.88;;
73593;SDS011;64760;53.404;23.498;2023-02-01T01:33:14;3.60;;;1.85;;
73593;SDS011;64760;53.404;23.498;2023-02-01T01:35:41;6.25;;;2.97;;
73593;SDS011;64760;53.404;23.498;2023-02-01T01:38:09;7.10;;;3.97;;
73593;SDS011;64760;53.404;23.498;2023-02-01T01:40:36;6.53;;;3.08;;
73593;SDS011;64760;53.404;23.498;2023-02-01T01:43:09;3.83;;;2.35;;
73593;SDS011;64760;53.404;23.498;2023-02-01T01:45:40;9.02;;;3.97;;
73593;SDS011;64760;53.404;23.498;2023-02-01T01:48:09;5.07;;;2.80;;
73593;SDS011;64760;53.404;23.498;2023-02-01T01:51:05;7.43;;;3.25;;
73593;SDS011;64760;53.404;23.498;2023-02-01T01:53:56;5.18;;;2.67;;
73593;SDS011;64760;53.404;23.498;2023-02-01T01:56:26;7.00;;;3.78;;
73593;SDS011;64760;53.404;23.498;2023-02-01T01:58:55;8.20;;;3.95;;
73593;SDS011;64760;53.404;23.498;2023-02-01T02:01:22;5.95;;;3.33;;
73593;SDS011;64760;53.404;23.498;2023-02-01T02:03:49;5.30;;;3.15;;
73593;SDS011;64760;53.404;23.498;2023-02-01T02:08:59;4.28;;;2.58;;
73593;SDS011;64760;53.404;23.498;2023-02-01T02:11:25;7.10;;;3.22;;
73593;SDS011;64760;53.404;23.498;2023-02-01T02:13:52;7.35;;;4.68;;
73593;SDS011;64760;53.404;23.498;2023-02-01T02:16:40;6.57;;;3.85;;
73593;SDS011;64760;53.404;23.498;2023-02-01T02:36:22;7.70;;;4.22;;
73593;SDS011;64760;53.404;23.498;2023-02-01T02:39:13;9.15;;;4.03;;
73593;SDS011;64760;53.404;23.498;2023-02-01T02:45:02;4.40;;;2.35;;
73593;SDS011;64760;53.404;23.498;2023-02-01T02:47:57;15.23;;;8.48;;
73593;SDS011;64760;53.404;23.498;2023-02-01T02:53:35;8.02;;;4.30;;
73593;SDS011;64760;53.404;23.498;2023-02-01T02:56:36;6.43;;;3.13;;
73593;SDS011;64760;53.404;23.498;2023-02-01T02:59:24;8.25;;;4.03;;
73593;SDS011;64760;53.404;23.498;2023-02-01T03:02:12;10.23;;;5.45;;
73593;SDS011;64760;53.404;23.498;2023-02-01T03:04:58;13.68;;;6.97;;
73593;SDS011;64760;53.404;23.498;2023-02-01T03:10:20;16.08;;;9.10;;
73593;SDS011;64760;53.404;23.498;2023-02-01T03:12:49;10.00;;;4.53;;
73593;SDS011;64760;53.404;23.498;2023-02-01T03:18:22;6.00;;;3.17;;
73593;SDS011;64760;53.404;23.498;2023-02-01T03:20:54;11.00;;;6.20;;
73593;SDS011;64760;53.404;23.498;2023-02-01T03:23:25;13.30;;;6.75;;
73593;SDS011;64760;53.404;23.498;2023-02-01T03:25:56;9.02;;;5.35;;
73593;SDS011;64760;53.404;23.498;2023-02-01T03:28:25;12.57;;;6.05;;
73593;SDS011;64760;53.404;23.498;2023-02-01T03:30:54;12.30;;;5.85;;
73593;SDS011;64760;53.404;23.498;2023-02-01T03:33:21;12.90;;;5.68;;
73593;SDS011;64760;53.404;23.498;2023-02-01T03:46:49;6.97;;;4.13;;
73593;SDS011;64760;53.404;23.498;2023-02-01T03:49:22;11.07;;;6.75;;
73593;SDS011;64760;53.404;23.498;2023-02-01T03:51:53;12.07;;;5.85;;
73593;SDS011;64760;53.404;23.498;2023-02-01T03:56:48;8.48;;;3.97;;
73593;SDS011;64760;53.404;23.498;2023-02-01T03:59:16;10.30;;;5.28;;
73593;SDS011;64760;53.404;23.498;2023-02-01T04:01:42;11.38;;;5.88;;
73593;SDS011;64760;53.404;23.498;2023-02-01T04:04:08;8.30;;;4.30;;
73593;SDS011;64760;53.404;23.498;2023-02-01T04:06:39;7.10;;;2.83;;
73593;SDS011;64760;53.404;23.498;2023-02-01T04:09:05;6.53;;;2.97;;
73593;SDS011;64760;53.404;23.498;2023-02-01T04:11:31;8.13;;;3.60;;
73593;SDS011;64760;53.404;23.498;2023-02-01T04:13:57;7.97;;;4.15;;
73593;SDS011;64760;53.404;23.498;2023-02-01T04:16:24;5.28;;;2.72;;
73593;SDS011;64760;53.404;23.498;2023-02-01T04:18:50;6.28;;;3.28;;
73593;SDS011;64760;53.404;23.498;2023-02-01T04:21:16;5.10;;;2.30;;
73593;SDS011;64760;53.404;23.498;2023-02-01T04:23:43;8.43;;;3.83;;
73593;SDS011;64760;53.404;23.498;2023-02-01T04:26:09;8.35;;;4.65;;
73593;SDS011;64760;53.404;23.498;2023-02-01T04:28:35;10.77;;;4.60;;
73593;SDS011;64760;53.404;23.498;2023-02-01T04:31:01;9.30;;;4.80;;
73593;SDS011;64760;53.404;23.498;2023-02-01T04:33:27;5.85;;;2.72;;
73593;SDS011;64760;53.404;23.498;2023-02-01T04:35:54;10.55;;;6.15;;
73593;SDS011;64760;53.404;23.498;2023-02-01T04:38:20;7.30;;;4.13;;
73593;SDS011;64760;53.404;23.498;2023-02-01T04:40:47;7.72;;;3.97;;
73593;SDS011;64760;53.404;23.498;2023-02-01T04:43:14;8.77;;;2.92;;
73593;SDS011;64760;53.404;23.498;2023-02-01T04:45:46;5.20;;;1.58;;
73593;SDS011;64760;53.404;23.498;2023-02-01T04:48:13;6.68;;;3.38;;
73593;SDS011;64760;53.404;23.498;2023-02-01T04:50:40;5.43;;;2.40;;
73593;SDS011;64760;53.404;23.498;2023-02-01T04:53:07;3.85;;;2.25;;
73593;SDS011;64760;53.404;23.498;2023-02-01T04:55:33;6.15;;;1.80;;
73593;SDS011;64760;53.404;23.498;2023-02-01T04:57:59;5.13;;;2.33;;
73593;SDS011;64760;53.404;23.498;2023-02-01T05:00:26;4.93;;;2.45;;
73593;SDS011;64760;53.404;23.498;2023-02-01T05:02:52;6.82;;;2.05;;
73593;SDS011;64760;53.404;23.498;2023-02-01T05:05:19;4.75;;;1.33;;
73593;SDS011;64760;53.404;23.498;2023-02-01T05:07:45;5.05;;;1.90;;
73593;SDS011;64760;53.404;23.498;2023-02-01T05:10:12;5.45;;;2.72;;
73593;SDS011;64760;53.404;23.498;2023-02-01T05:12:39;5.03;;;2.60;;
73593;SDS011;64760;53.404;23.498;2023-02-01T05:15:23;4.25;;;2.15;;
73593;SDS011;64760;53.404;23.498;2023-02-01T05:17:49;6.05;;;2.53;;
73593;SDS011;64760;53.404;23.498;2023-02-01T05:20:16;4.38;;;2.20;;
73593;SDS011;64760;53.404;23.498;2023-02-01T05:22:42;6.68;;;2.67;;
73593;SDS011;64760;53.404;23.498;2023-02-01T05:25:08;6.40;;;3.33;;
73593;SDS011;64760;53.404;23.498;2023-02-01T05:27:38;9.75;;;4.40;;
73593;SDS011;64760;53.404;23.498;2023-02-01T05:30:04;6.00;;;2.70;;
73593;SDS011;64760;53.404;23.498;2023-02-01T05:32:31;5.85;;;2.45;;
73593;SDS011;64760;53.404;23.498;2023-02-01T05:34:58;6.18;;;2.83;;
73593;SDS011;64760;53.404;23.498;2023-02-01T05:37:24;6.05;;;3.25;;
73593;SDS011;64760;53.404;23.498;2023-02-01T05:39:51;5.88;;;3.00;;
73593;SDS011;64760;53.404;23.498;2023-02-01T05:42:18;9.70;;;5.15;;
73593;SDS011;64760;53.404;23.498;2023-02-01T05:44:44;7.03;;;3.55;;
73593;SDS011;64760;53.404;23.498;2023-02-01T05:47:10;10.50;;;3.88;;
73593;SDS011;64760;53.404;23.498;2023-02-01T05:49:38;4.05;;;1.98;;
73593;SDS011;64760;53.404;23.498;2023-02-01T05:52:04;7.80;;;3.60;;
73593;SDS011;64760;53.404;23.498;2023-02-01T05:54:31;6.80;;;3.08;;
73593;SDS011;64760;53.404;23.498;2023-02-01T05:56:57;3.50;;;2.22;;
73593;SDS011;64760;53.404;23.498;2023-02-01T05:59:23;8.57;;;3.88;;
73593;SDS011;64760;53.404;23.498;2023-02-01T06:01:49;8.05;;;4.05;;
73593;SDS011;64760;53.404;23.498;2023-02-01T06:04:15;4.65;;;2.42;;
73593;SDS011;64760;53.404;23.498;2023-02-01T06:06:42;10.52;;;4.30;;
73593;SDS011;64760;53.404;23.498;2023-02-01T06:09:08;14.48;;;5.93;;
73593;SDS011;64760;53.404;23.498;2023-02-01T06:11:34;22.50;;;9.85;;
73593;SDS011;64760;53.404;23.498;2023-02-01T06:14:00;25.52;;;11.05;;
73593;SDS011;64760;53.404;23.498;2023-02-01T06:16:27;24.92;;;10.45;;
73593;SDS011;64760;53.404;23.498;2023-02-01T06:18:53;11.32;;;5.32;;
73593;SDS011;64760;53.404;23.498;2023-02-01T06:21:19;14.60;;;5.60;;
73593;SDS011;64760;53.404;23.498;2023-02-01T06:23:52;14.02;;;7.55;;
73593;SDS011;64760;53.404;23.498;2023-02-01T06:26:19;9.02;;;4.03;;
73593;SDS011;64760;53.404;23.498;2023-02-01T06:28:46;7.45;;;4.40;;
73593;SDS011;64760;53.404;23.498;2023-02-01T06:31:12;13.63;;;5.72;;
73593;SDS011;64760;53.404;23.498;2023-02-01T06:33:39;8.77;;;3.75;;
73593;SDS011;64760;53.404;23.498;2023-02-01T06:36:05;9.45;;;5.10;;
73593;SDS011;64760;53.404;23.498;2023-02-01T06:38:35;6.78;;;3.50;;
73593;SDS011;64760;53.404;23.498;2023-02-01T06:41:02;11.10;;;4.03;;
73593;SDS011;64760;53.404;23.498;2023-02-01T06:43:29;15.23;;;7.25;;
73593;SDS011;64760;53.404;23.498;2023-02-01T06:46:00;10.13;;;4.80;;
73593;SDS011;64760;53.404;23.498;2023-02-01T06:48:31;12.10;;;4.53;;
73593;SDS011;64760;53.404;23.498;2023-02-01T06:50:58;18.35;;;6.28;;
73593;SDS011;64760;53.404;23.498;2023-02-01T06:53:24;10.48;;;4.00;;
73593;SDS011;64760;53.404;23.498;2023-02-01T06:58:29;9.02;;;4.40;;
73593;SDS011;64760;53.404;23.498;2023-02-01T07:00:57;12.00;;;5.22;;
73593;SDS011;64760;53.404;23.498;2023-02-01T07:03:25;14.90;;;7.50;;
73593;SDS011;64760;53.404;23.498;2023-02-01T07:05:54;23.83;;;9.43;;
73593;SDS011;64760;53.404;23.498;2023-02-01T07:08:24;14.88;;;7.30;;
73593;SDS011;64760;53.404;23.498;2023-02-01T07:10:52;13.05;;;6.20;;
73593;SDS011;64760;53.404;23.498;2023-02-01T07:13:19;24.90;;;12.63;;
73593;SDS011;64760;53.404;23.498;2023-02-01T07:15:45;15.13;;;7.85;;
73593;SDS011;64760;53.404;23.498;2023-02-01T07:18:15;14.00;;;5.43;;
73593;SDS011;64760;53.404;23.498;2023-02-01T07:20:41;11.57;;;5.05;;
73593;SDS011;64760;53.404;23.498;2023-02-01T07:23:09;13.57;;;6.45;;
73593;SDS011;64760;53.404;23.498;2023-02-01T07:25:36;10.60;;;4.07;;
73593;SDS011;64760;53.404;23.498;2023-02-01T07:28:04;19.08;;;10.25;;
73593;SDS011;64760;53.404;23.498;2023-02-01T07:30:30;17.95;;;6.95;;
73593;SDS011;64760;53.404;23.498;2023-02-01T07:32:56;12.07;;;5.82;;
73593;SDS011;64760;53.404;23.498;2023-02-01T07:35:29;20.88;;;10.85;;
73593;SDS011;64760;53.404;23.498;2023-02-01T07:37:59;23.70;;;7.90;;
73593;SDS011;64760;53.404;23.498;2023-02-01T07:40:25;21.55;;;6.70;;
73593;SDS011;64760;53.404;23.498;2023-02-01T07:42:54;19.20;;;8.20;;
73593;SDS011;64760;53.404;23.498;2023-02-01T07:45:21;23.85;;;9.15;;
73593;SDS011;64760;53.404;23.498;2023-02-01T07:47:50;21.48;;;9.57;;
73593;SDS011;64760;53.404;23.498;2023-02-01T07:50:19;8.85;;;5.35;;
73593;SDS011;64760;53.404;23.498;2023-02-01T07:52:45;15.40;;;6.32;;
73593;SDS011;64760;53.404;23.498;2023-02-01T07:55:11;14.90;;;7.22;;
73593;SDS011;64760;53.404;23.498;2023-02-01T07:57:39;12.68;;;5.32;;
73593;SDS011;64760;53.404;23.498;2023-02-01T08:00:05;20.83;;;9.85;;
73593;SDS011;64760;53.404;23.498;2023-02-01T08:02:50;37.38;;;17.00;;
73593;SDS011;64760;53.404;23.498;2023-02-01T08:05:16;17.23;;;7.32;;
73593;SDS011;64760;53.404;23.498;2023-02-01T08:07:43;14.25;;;8.93;;
73593;SDS011;64760;53.404;23.498;2023-02-01T08:10:09;13.73;;;6.80;;
73593;SDS011;64760;53.404;23.498;2023-02-01T08:12:37;18.90;;;10.60;;
73593;SDS011;64760;53.404;23.498;2023-02-01T08:15:04;19.52;;;9.90;;
73593;SDS011;64760;53.404;23.498;2023-02-01T08:17:32;24.13;;;10.63;;
73593;SDS011;64760;53.404;23.498;2023-02-01T08:19:58;11.73;;;5.22;;
73593;SDS011;64760;53.404;23.498;2023-02-01T08:22:25;11.88;;;5.35;;
73593;SDS011;64760;53.404;23.498;2023-02-01T08:24:51;13.38;;;6.78;;
73593;SDS011;64760;53.404;23.498;2023-02-01T08:27:17;26.90;;;11.27;;
73593;SDS011;64760;53.404;23.498;2023-02-01T08:29:44;25.02;;;11.27;;
73593;SDS011;64760;53.404;23.498;2023-02-01T08:32:10;15.80;;;6.80;;
73593;SDS011;64760;53.404;23.498;2023-02-01T08:34:37;26.90;;;11.52;;
73593;SDS011;64760;53.404;23.498;2023-02-01T08:37:03;26.02;;;12.85;;
73593;SDS011;64760;53.404;23.498;2023-02-01T08:39:29;13.63;;;7.43;;
73593;SDS011;64760;53.404;23.498;2023-02-01T08:41:57;19.83;;;9.63;;
73593;SDS011;64760;53.404;23.498;2023-02-01T08:44:41;17.05;;;7.75;;
73593;SDS011;64760;53.404;23.498;2023-02-01T08:47:08;12.32;;;6.22;;
73593;SDS011;64760;53.404;23.498;2023-02-01T08:49:34;15.82;;;7.43;;
73593;SDS011;64760;53.404;23.498;2023-02-01T08:52:01;17.27;;;7.80;;
73593;SDS011;64760;53.404;23.498;2023-02-01T08:54:27;15.27;;;8.32;;
73593;SDS011;64760;53.404;23.498;2023-02-01T08:56:54;11.65;;;7.45;;
73593;SDS011;64760;53.404;23.498;2023-02-01T08:59:22;11.52;;;5.32;;
73593;SDS011;64760;53.404;23.498;2023-02-01T09:01:48;12.35;;;6.53;;
73593;SDS011;64760;53.404;23.498;2023-02-01T09:04:14;20.38;;;8.15;;
73593;SDS011;64760;53.404;23.498;2023-02-01T09:06:41;20.85;;;10.98;;
73593;SDS011;64760;53.404;23.498;2023-02-01T09:09:07;16.58;;;8.63;;
73593;SDS011;64760;53.404;23.498;2023-02-01T09:21:29;10.88;;;4.70;;
73593;SDS011;64760;53.404;23.498;2023-02-01T09:23:59;18.52;;;8.50;;
73593;SDS011;64760;53.404;23.498;2023-02-01T09:26:25;23.70;;;8.52;;
73593;SDS011;64760;53.404;23.498;2023-02-01T09:28:52;10.48;;;5.22;;
73593;SDS011;64760;53.404;23.498;2023-02-01T09:31:19;14.60;;;7.70;;
73593;SDS011;64760;53.404;23.498;2023-02-01T09:33:45;13.75;;;7.05;;
73593;SDS011;64760;53.404;23.498;2023-02-01T09:36:12;16.63;;;7.50;;
73593;SDS011;64760;53.404;23.498;2023-02-01T09:38:38;12.07;;;4.28;;
73593;SDS011;64760;53.404;23.498;2023-02-01T09:41:07;11.38;;;5.60;;
73593;SDS011;64760;53.404;23.498;2023-02-01T09:46:24;13.75;;;5.97;;
73593;SDS011;64760;53.404;23.498;2023-02-01T09:48:54;17.85;;;5.80;;
73593;SDS011;64760;53.404;23.498;2023-02-01T09:51:39;17.42;;;8.18;;
73593;SDS011;64760;53.404;23.498;2023-02-01T09:54:12;20.92;;;9.68;;
73593;SDS011;64760;53.404;23.498;2023-02-01T09:57:03;22.00;;;8.88;;
73593;SDS011;64760;53.404;23.498;2023-02-01T09:59:51;27.00;;;9.68;;
73593;SDS011;64760;53.404;23.498;2023-02-01T10:02:23;9.77;;;4.63;;
73593;SDS011;64760;53.404;23.498;2023-02-01T10:04:55;12.30;;;4.90;;
73593;SDS011;64760;53.404;23.498;2023-02-01T10:08:01;10.27;;;4.85;;
73593;SDS011;64760;53.404;23.498;2023-02-01T10:13:09;15.73;;;6.85;;
73593;SDS011;64760;53.404;23.498;2023-02-01T10:26:18;16.38;;;8.50;;
73593;SDS011;64760;53.404;23.498;2023-02-01T10:28:48;15.95;;;7.57;;
73593;SDS011;64760;53.404;23.498;2023-02-01T10:31:21;19.23;;;8.10;;
73593;SDS011;64760;53.404;23.498;2023-02-01T10:34:00;18.77;;;9.35;;
73593;SDS011;64760;53.404;23.498;2023-02-01T10:36:40;11.23;;;5.57;;
73593;SDS011;64760;53.404;23.498;2023-02-01T10:41:38;29.92;;;11.77;;
73593;SDS011;64760;53.404;23.498;2023-02-01T10:44:09;18.02;;;7.30;;
73593;SDS011;64760;53.404;23.498;2023-02-01T10:46:40;25.38;;;11.43;;
73593;SDS011;64760;53.404;23.498;2023-02-01T10:49:16;25.05;;;13.07;;
73593;SDS011;64760;53.404;23.498;2023-02-01T10:51:47;21.00;;;8.65;;
73593;SDS011;64760;53.404;23.498;2023-02-01T10:54:19;22.75;;;8.50;;
73593;SDS011;64760;53.404;23.498;2023-02-01T10:56:48;19.38;;;8.10;;
73593;SDS011;64760;53.404;23.498;2023-02-01T10:59:20;19.67;;;9.30;;
73593;SDS011;64760;53.404;23.498;2023-02-01T11:01:50;26.42;;;11.63;;
73593;SDS011;64760;53.404;23.498;2023-02-01T11:04:25;14.25;;;5.82;;
73593;SDS011;64760;53.404;23.498;2023-02-01T11:06:53;30.77;;;12.80;;
73593;SDS011;64760;53.404;23.498;2023-02-01T11:09:39;14.65;;;6.65;;
73593;SDS011;64760;53.404;23.498;2023-02-01T11:14:48;9.80;;;4.65;;
73593;SDS011;64760;53.404;23.498;2023-02-01T11:17:17;9.35;;;4.63;;
73593;SDS011;64760;53.404;23.498;2023-02-01T11:20:03;13.13;;;6.53;;
73593;SDS011;64760;53.404;23.498;2023-02-01T11:22:38;11.82;;;6.22;;
73593;SDS011;64760;53.404;23.498;2023-02-01T11:25:14;13.07;;;5.55;;
73593;SDS011;64760;53.404;23.498;2023-02-01T11:27:43;8.40;;;3.67;;
73593;SDS011;64760;53.404;23.498;2023-02-01T11:30:15;19.00;;;6.80;;
73593;SDS011;64760;53.404;23.498;2023-02-01T11:32:46;8.77;;;4.50;;
73593;SDS011;64760;53.404;23.498;2023-02-01T11:35:15;11.10;;;4.50;;
73593;SDS011;64760;53.404;23.498;2023-02-01T11:37:53;12.40;;;4.68;;
73593;SDS011;64760;53.404;23.498;2023-02-01T11:40:29;8.18;;;3.55;;
73593;SDS011;64760;53.404;23.498;2023-02-01T11:43:08;7.70;;;4.50;;
73593;SDS011;64760;53.404;23.498;2023-02-01T11:46:02;13.10;;;5.32;;
73593;SDS011;64760;53.404;23.498;2023-02-01T11:48:46;11.48;;;5.35;;
73593;SDS011;64760;53.404;23.498;2023-02-01T11:54:24;19.52;;;6.47;;
73593;SDS011;64760;53.404;23.498;2023-02-01T11:57:18;9.55;;;3.97;;
73593;SDS011;64760;53.404;23.498;2023-02-01T11:59:55;13.02;;;6.18;;
73593;SDS011;64760;53.404;23.498;2023-02-01T12:13:49;15.75;;;7.35;;
73593;SDS011;64760;53.404;23.498;2023-02-01T12:28:01;16.45;;;7.70;;
73593;SDS011;64760;53.404;23.498;2023-02-01T12:31:02;12.20;;;5.65;;
73593;SDS011;64760;53.404;23.498;2023-02-01T12:42:26;6.75;;;3.08;;
73593;SDS011;64760;53.404;23.498;2023-02-01T12:45:11;16.65;;;5.60;;
73593;SDS011;64760;53.404;23.498;2023-02-01T12:47:44;11.60;;;5.40;;
73593;SDS011;64760;53.404;23.498;2023-02-01T12:50:26;12.70;;;5.40;;
73593;SDS011;64760;53.404;23.498;2023-02-01T12:53:06;14.25;;;5.85;;
73593;SDS011;64760;53.404;23.498;2023-02-01T12:55:42;15.90;;;7.53;;
73593;SDS011;64760;53.404;23.498;2023-02-01T12:58:22;11.65;;;5.45;;
73593;SDS011;64760;53.404;23.498;2023-02-01T13:00:55;12.18;;;5.15;;
73593;SDS011;64760;53.404;23.498;2023-02-01T13:11:33;9.10;;;5.22;;
73593;SDS011;64760;53.404;23.498;2023-02-01T13:14:17;8.20;;;3.08;;
73593;SDS011;64760;53.404;23.498;2023-02-01T13:17:05;13.13;;;5.13;;
73593;SDS011;64760;53.404;23.498;2023-02-01T13:25:10;12.57;;;4.22;;
73593;SDS011;64760;53.404;23.498;2023-02-01T13:27:39;9.25;;;4.63;;
73593;SDS011;64760;53.404;23.498;2023-02-01T13:32:46;15.77;;;6.43;;
73593;SDS011;64760;53.404;23.498;2023-02-01T13:41:39;12.90;;;5.18;;
73593;SDS011;64760;53.404;23.498;2023-02-01T13:44:11;13.90;;;5.15;;
73593;SDS011;64760;53.404;23.498;2023-02-01T13:46:45;8.13;;;3.88;;
73593;SDS011;64760;53.404;23.498;2023-02-01T13:49:23;10.10;;;3.88;;
73593;SDS011;64760;53.404;23.498;2023-02-01T13:51:55;12.32;;;5.00;;
73593;SDS011;64760;53.404;23.498;2023-02-01T13:56:52;22.58;;;10.18;;
73593;SDS011;64760;53.404;23.498;2023-02-01T14:05:09;8.82;;;3.88;;
73593;SDS011;64760;53.404;23.498;2023-02-01T14:07:42;11.68;;;5.35;;
73593;SDS011;64760;53.404;23.498;2023-02-01T14:13:26;10.55;;;4.75;;
73593;SDS011;64760;53.404;23.498;2023-02-01T14:21:17;12.75;;;4.22;;
73593;SDS011;64760;53.404;23.498;2023-02-01T14:26:20;14.57;;;7.35;;
73593;SDS011;64760;53.404;23.498;2023-02-01T14:31:31;11.23;;;5.70;;
73593;SDS011;64760;53.404;23.498;2023-02-01T14:34:00;16.58;;;6.80;;
73593;SDS011;64760;53.404;23.498;2023-02-01T14:36:43;12.13;;;6.13;;
73593;SDS011;64760;53.404;23.498;2023-02-01T14:39:20;13.50;;;5.85;;
73593;SDS011;64760;53.404;23.498;2023-02-01T14:41:54;13.95;;;6.93;;
73593;SDS011;64760;53.404;23.498;2023-02-01T14:44:27;12.13;;;6.50;;
73593;SDS011;64760;53.404;23.498;2023-02-01T14:47:02;11.32;;;5.78;;
73593;SDS011;64760;53.404;23.498;2023-02-01T14:50:18;12.02;;;4.93;;
73593;SDS011;64760;53.404;23.498;2023-02-01T14:52:39;17.70;;;7.95;;
73593;SDS011;64760;53.404;23.498;2023-02-01T14:55:17;12.82;;;5.65;;
73593;SDS011;64760;53.404;23.498;2023-02-01T14:57:51;13.18;;;5.05;;
73593;SDS011;64760;53.404;23.498;2023-02-01T15:00:23;7.15;;;3.95;;
73593;SDS011;64760;53.404;23.498;2023-02-01T15:02:53;13.93;;;5.95;;
73593;SDS011;64760;53.404;23.498;2023-02-01T15:05:26;18.90;;;6.65;;
73593;SDS011;64760;53.404;23.498;2023-02-01T15:08:00;16.60;;;6.32;;
73593;SDS011;64760;53.404;23.498;2023-02-01T15:10:31;15.32;;;7.28;;
73593;SDS011;64760;53.404;23.498;2023-02-01T15:13:07;16.27;;;7.00;;
73593;SDS011;64760;53.404;23.498;2023-02-01T15:15:44;20.92;;;10.32;;
73593;SDS011;64760;53.404;23.498;2023-02-01T15:18:14;15.43;;;7.30;;
73593;SDS011;64760;53.404;23.498;2023-02-01T15:20:43;22.58;;;7.93;;
73593;SDS011;64760;53.404;23.498;2023-02-01T15:23:24;25.50;;;7.60;;
73593;SDS011;64760;53.404;23.498;2023-02-01T15:25:51;14.23;;;6.00;;
73593;SDS011;64760;53.404;23.498;2023-02-01T15:28:17;23.27;;;8.75;;
73593;SDS011;64760;53.404;23.498;2023-02-01T15:30:53;16.08;;;7.00;;
73593;SDS011;64760;53.404;23.498;2023-02-01T15:33:29;18.08;;;7.32;;
73593;SDS011;64760;53.404;23.498;2023-02-01T15:43:37;15.82;;;6.03;;
73593;SDS011;64760;53.404;23.498;2023-02-01T15:46:18;20.00;;;8.15;;
73593;SDS011;64760;53.404;23.498;2023-02-01T15:48:49;16.55;;;8.07;;
73593;SDS011;64760;53.404;23.498;2023-02-01T15:51:19;24.13;;;6.65;;
73593;SDS011;64760;53.404;23.498;2023-02-01T15:53:55;19.67;;;9.02;;
73593;SDS011;64760;53.404;23.498;2023-02-01T15:56:32;23.70;;;9.05;;
73593;SDS011;64760;53.404;23.498;2023-02-01T15:59:02;14.98;;;7.32;;
73593;SDS011;64760;53.404;23.498;2023-02-01T16:01:37;21.20;;;8.80;;
73593;SDS011;64760;53.404;23.498;2023-02-01T16:06:35;17.70;;;8.57;;
73593;SDS011;64760;53.404;23.498;2023-02-01T16:09:11;15.68;;;7.68;;
73593;SDS011;64760;53.404;23.498;2023-02-01T16:12:01;28.35;;;11.55;;
73593;SDS011;64760;53.404;23.498;2023-02-01T16:14:27;19.40;;;7.95;;
73593;SDS011;64760;53.404;23.498;2023-02-01T16:16:54;10.38;;;5.13;;
73593;SDS011;64760;53.404;23.498;2023-02-01T16:19:23;24.00;;;9.90;;
73593;SDS011;64760;53.404;23.498;2023-02-01T16:21:54;32.72;;;10.35;;
73593;SDS011;64760;53.404;23.498;2023-02-01T16:24:21;20.13;;;8.20;;
73593;SDS011;64760;53.404;23.498;2023-02-01T16:26:50;21.40;;;9.77;;
73593;SDS011;64760;53.404;23.498;2023-02-01T16:29:20;17.17;;;8.68;;
73593;SDS011;64760;53.404;23.498;2023-02-01T16:31:47;17.80;;;8.93;;
73593;SDS011;64760;53.404;23.498;2023-02-01T16:34:15;20.30;;;7.32;;
73593;SDS011;64760;53.404;23.498;2023-02-01T16:36:49;18.95;;;8.90;;
73593;SDS011;64760;53.404;23.498;2023-02-01T16:39:27;19.77;;;9.68;;
73593;SDS011;64760;53.404;23.498;2023-02-01T16:41:53;17.45;;;8.25;;
73593;SDS011;64760;53.404;23.498;2023-02-01T16:44:20;33.33;;;15.55;;
73593;SDS011;64760;53.404;23.498;2023-02-01T16:46:46;25.70;;;12.63;;
73593;SDS011;64760;53.404;23.498;2023-02-01T16:49:22;13.13;;;6.88;;
73593;SDS011;64760;53.404;23.498;2023-02-01T16:51:50;16.40;;;7.90;;
73593;SDS011;64760;53.404;23.498;2023-02-01T16:54:20;17.48;;;6.32;;
73593;SDS011;64760;53.404;23.498;2023-02-01T16:56:48;24.58;;;12.05;;
73593;SDS011;64760;53.404;23.498;2023-02-01T16:59:15;19.73;;;12.52;;
73593;SDS011;64760;53.404;23.498;2023-02-01T17:01:41;16.33;;;7.25;;
73593;SDS011;64760;53.404;23.498;2023-02-01T17:04:09;20.58;;;10.57;;
73593;SDS011;64760;53.404;23.498;2023-02-01T17:06:37;45.67;;;19.45;;
73593;SDS011;64760;53.404;23.498;2023-02-01T17:09:05;28.48;;;11.80;;
73593;SDS011;64760;53.404;23.498;2023-02-01T17:11:31;35.55;;;14.68;;
73593;SDS011;64760;53.404;23.498;2023-02-01T17:14:18;28.42;;;13.55;;
73593;SDS011;64760;53.404;23.498;2023-02-01T17:16:47;27.17;;;13.05;;
73593;SDS011;64760;53.404;23.498;2023-02-01T17:19:17;36.03;;;12.13;;
73593;SDS011;64760;53.404;23.498;2023-02-01T17:21:49;37.80;;;15.95;;
73593;SDS011;64760;53.404;23.498;2023-02-01T17:24:19;27.63;;;11.40;;
73593;SDS011;64760;53.404;23.498;2023-02-01T17:26:48;32.97;;;14.88;;
73593;SDS011;64760;53.404;23.498;2023-02-01T17:29:17;18.25;;;8.63;;
73593;SDS011;64760;53.404;23.498;2023-02-01T17:31:46;13.55;;;8.05;;
73593;SDS011;64760;53.404;23.498;2023-02-01T17:34:15;9.90;;;4.50;;
73593;SDS011;64760;53.404;23.498;2023-02-01T17:36:44;20.92;;;7.63;;
73593;SDS011;64760;53.404;23.498;2023-02-01T17:39:12;34.83;;;16.33;;